Time,TemperatureF,DewpointF,PressureIn,WindDirection,WindDirectionDegrees,WindSpeedMPH,WindSpeedGustMPH,Humidity,HourlyPrecipIn,Conditions,Clouds,dailyrainin,SolarRadiationWatts/m^2,SoftwareType,DateUTC
2013-08-19 00:00:00,65.0,63.5,30.24,WSW,249,0.0,5.0,95,0.00,,,0.00,0,Wunderground v.1.15,2013-08-19 04:00:00,
2013-08-19 00:05:00,65.0,63.5,30.24,WSW,249,0.0,5.0,95,0.00,,,0.00,0,Wunderground v.1.15,2013-08-19 04:05:00,
2013-08-19 00:10:00,64.9,63.4,30.24,WSW,249,0.0,5.0,95,0.00,,,0.00,0,Wunderground v.1.15,2013-08-19 04:10:00,
2013-08-19 00:15:00,64.9,63.4,30.24,WSW,249,0.0,5.0,95,0.00,,,0.00,0,Wunderground v.1.15,2013-08-19 04:15:00,
2013-08-19 00:20:00,64.8,63.3,30.24,WSW,249,0.0,5.0,95,0.00,,,0.00,0,Wunderground v.1.15,2013-08-19 04:20:00,
2013-08-19 00:30:00,64.6,63.1,30.24,WSW,249,0.0,5.0,95,0.00,,,0.00,0,Wunderground v.1.15,2013-08-19 04:30:00,
2013-08-19 00:35:00,64.6,63.4,30.24,WSW,249,0.0,5.0,96,0.00,,,0.00,0,Wunderground v.1.15,2013-08-19 04:35:00,
2013-08-19 00:40:00,64.6,63.4,30.25,WSW,249,0.0,5.0,96,0.00,,,0.00,0,Wunderground v.1.15,2013-08-19 04:40:00,
2013-08-19 00:45:00,64.6,63.4,30.24,WSW,249,0.0,5.0,96,0.00,,,0.00,0,Wunderground v.1.15,2013-08-19 04:45:00,
2013-08-19 00:50:00,64.6,63.4,30.24,WSW,249,0.0,5.0,96,0.00,,,0.00,0,Wunderground v.1.15,2013-08-19 04:50:00,
2013-08-19 00:55:00,64.6,63.4,30.25,WSW,249,0.0,5.0,96,0.00,,,0.00,0,Wunderground v.1.15,2013-08-19 04:55:00,
2013-08-19 01:05:00,64.7,63.5,30.24,WSW,249,0.0,5.0,96,0.00,,,0.00,0,Wunderground v.1.15,2013-08-19 05:05:00,
2013-08-19 01:10:00,64.6,63.4,30.24,WSW,249,0.0,5.0,96,0.00,,,0.00,0,Wunderground v.1.15,2013-08-19 05:10:00,
2013-08-19 01:15:00,64.7,63.5,30.23,WSW,249,0.0,5.0,96,0.00,,,0.00,0,Wunderground v.1.15,2013-08-19 05:15:00,
2013-08-19 01:20:00,64.7,63.5,30.23,WSW,249,0.0,5.0,96,0.00,,,0.00,0,Wunderground v.1.15,2013-08-19 05:20:00,
2013-08-19 01:25:00,64.6,63.4,30.23,WSW,249,0.0,5.0,96,0.00,,,0.00,0,Wunderground v.1.15,2013-08-19 05:25:00,
2013-08-19 01:35:00,64.6,63.4,30.23,WSW,249,0.0,5.0,96,0.00,,,0.00,0,Wunderground v.1.15,2013-08-19 05:35:00,
2013-08-19 01:40:00,64.7,63.5,30.22,WSW,249,0.0,5.0,96,0.00,,,0.00,0,Wunderground v.1.15,2013-08-19 05:40:00,
2013-08-19 01:45:00,64.6,63.4,30.22,WSW,249,0.0,5.0,96,0.00,,,0.00,0,Wunderground v.1.15,2013-08-19 05:45:00,
2013-08-19 01:50:00,64.7,63.5,30.22,WSW,249,0.0,5.0,96,0.00,,,0.00,0,Wunderground v.1.15,2013-08-19 05:50:00,
2013-08-19 01:55:00,64.6,63.4,30.22,WSW,249,0.0,5.0,96,0.00,,,0.00,0,Wunderground v.1.15,2013-08-19 05:55:00,
2013-08-19 02:00:00,64.6,63.4,30.22,WSW,249,0.0,5.0,96,0.00,,,0.00,0,Wunderground v.1.15,2013-08-19 06:00:00,
2013-08-19 02:10:00,64.5,63.3,30.21,WSW,249,0.0,5.0,96,0.00,,,0.00,0,Wunderground v.1.15,2013-08-19 06:10:00,
2013-08-19 02:15:00,64.5,63.3,30.21,WSW,249,0.0,5.0,96,0.00,,,0.00,0,Wunderground v.1.15,2013-08-19 06:15:00,
2013-08-19 02:20:00,64.5,63.3,30.21,WSW,249,0.0,5.0,96,0.00,,,0.00,0,Wunderground v.1.15,2013-08-19 06:20:00,
2013-08-19 02:25:00,64.5,63.3,30.21,WSW,249,0.0,5.0,96,0.00,,,0.00,0,Wunderground v.1.15,2013-08-19 06:25:00,
2013-08-19 02:30:00,64.5,63.3,30.21,WSW,249,0.0,5.0,96,0.00,,,0.00,0,Wunderground v.1.15,2013-08-19 06:30:00,
2013-08-19 02:40:00,64.4,63.2,30.20,WSW,249,0.0,5.0,96,0.00,,,0.00,0,Wunderground v.1.15,2013-08-19 06:40:00,
2013-08-19 02:45:00,64.4,63.2,30.20,WSW,249,0.0,5.0,96,0.00,,,0.00,0,Wunderground v.1.15,2013-08-19 06:45:00,
2013-08-19 02:50:00,64.4,63.2,30.20,WSW,249,0.0,5.0,96,0.00,,,0.00,0,Wunderground v.1.15,2013-08-19 06:50:00,
2013-08-19 02:55:00,64.3,63.1,30.20,WSW,249,0.0,5.0,96,0.00,,,0.00,0,Wunderground v.1.15,2013-08-19 06:55:00,
2013-08-19 03:00:00,64.3,63.1,30.20,WSW,249,0.0,5.0,96,0.00,,,0.00,0,Wunderground v.1.15,2013-08-19 07:00:00,
2013-08-19 03:10:00,64.3,63.1,30.20,WSW,249,0.0,5.0,96,0.00,,,0.00,0,Wunderground v.1.15,2013-08-19 07:10:00,
2013-08-19 03:15:00,64.3,63.1,30.20,WSW,249,0.0,5.0,96,0.00,,,0.00,0,Wunderground v.1.15,2013-08-19 07:15:00,
2013-08-19 03:20:00,64.3,63.1,30.20,WSW,249,0.0,5.0,96,0.00,,,0.00,0,Wunderground v.1.15,2013-08-19 07:20:00,
2013-08-19 03:25:00,64.2,63.0,30.20,WSW,249,0.0,5.0,96,0.00,,,0.00,0,Wunderground v.1.15,2013-08-19 07:25:00,
2013-08-19 03:30:00,64.2,63.0,30.19,WSW,249,0.0,5.0,96,0.00,,,0.00,0,Wunderground v.1.15,2013-08-19 07:30:00,
2013-08-19 03:35:00,64.2,63.0,30.20,WSW,249,0.0,5.0,96,0.00,,,0.00,0,Wunderground v.1.15,2013-08-19 07:35:00,
2013-08-19 03:40:00,64.1,62.9,30.20,WSW,249,0.0,5.0,96,0.00,,,0.00,0,Wunderground v.1.15,2013-08-19 07:40:00,
2013-08-19 03:50:00,64.0,62.8,30.20,WSW,249,0.0,5.0,96,0.00,,,0.00,0,Wunderground v.1.15,2013-08-19 07:50:00,
2013-08-19 03:55:00,63.9,62.7,30.20,WSW,249,0.0,5.0,96,0.00,,,0.00,0,Wunderground v.1.15,2013-08-19 07:55:00,
2013-08-19 04:00:00,63.9,62.7,30.19,WSW,249,0.0,5.0,96,0.00,,,0.00,0,Wunderground v.1.15,2013-08-19 08:00:00,
2013-08-19 04:05:00,63.8,62.6,30.19,WSW,249,0.0,5.0,96,0.00,,,0.00,0,Wunderground v.1.15,2013-08-19 08:05:00,
2013-08-19 04:10:00,63.7,62.5,30.18,WSW,249,0.0,5.0,96,0.00,,,0.00,0,Wunderground v.1.15,2013-08-19 08:10:00,
2013-08-19 04:20:00,63.6,62.7,30.18,WSW,249,0.0,5.0,97,0.00,,,0.00,0,Wunderground v.1.15,2013-08-19 08:20:00,
2013-08-19 04:25:00,63.5,62.6,30.19,WSW,249,0.0,5.0,97,0.00,,,0.00,0,Wunderground v.1.15,2013-08-19 08:25:00,
2013-08-19 04:30:00,63.5,62.6,30.19,WSW,249,0.0,5.0,97,0.00,,,0.00,0,Wunderground v.1.15,2013-08-19 08:30:00,
2013-08-19 04:35:00,63.4,62.5,30.18,WSW,249,0.0,5.0,97,0.00,,,0.00,0,Wunderground v.1.15,2013-08-19 08:35:00,
2013-08-19 04:40:00,63.4,62.5,30.18,WSW,249,0.0,5.0,97,0.00,,,0.00,0,Wunderground v.1.15,2013-08-19 08:40:00,
2013-08-19 04:45:00,63.3,62.4,30.18,WSW,249,0.0,5.0,97,0.00,,,0.00,0,Wunderground v.1.15,2013-08-19 08:45:00,
2013-08-19 04:55:00,63.3,62.4,30.18,WSW,249,0.0,5.0,97,0.00,,,0.00,0,Wunderground v.1.15,2013-08-19 08:55:00,
2013-08-19 05:00:00,63.2,62.3,30.19,WSW,249,0.0,5.0,97,0.00,,,0.00,0,Wunderground v.1.15,2013-08-19 09:00:00,
2013-08-19 05:05:00,63.3,62.4,30.19,WSW,249,0.0,5.0,97,0.00,,,0.00,0,Wunderground v.1.15,2013-08-19 09:05:00,
2013-08-19 05:10:00,63.3,62.4,30.19,WSW,249,0.0,5.0,97,0.00,,,0.00,0,Wunderground v.1.15,2013-08-19 09:10:00,
2013-08-19 05:15:00,63.2,62.3,30.19,WSW,249,0.0,5.0,97,0.00,,,0.00,0,Wunderground v.1.15,2013-08-19 09:15:00,
2013-08-19 05:25:00,63.2,62.3,30.19,WSW,249,0.0,5.0,97,0.00,,,0.00,0,Wunderground v.1.15,2013-08-19 09:25:00,
2013-08-19 05:30:00,63.2,62.3,30.18,WSW,249,0.0,5.0,97,0.00,,,0.00,0,Wunderground v.1.15,2013-08-19 09:30:00,
2013-08-19 05:35:00,63.3,62.4,30.18,WSW,249,0.0,5.0,97,0.00,,,0.00,0,Wunderground v.1.15,2013-08-19 09:35:00,
2013-08-19 05:40:00,63.3,62.4,30.19,WSW,249,0.0,5.0,97,0.00,,,0.00,0,Wunderground v.1.15,2013-08-19 09:40:00,
2013-08-19 05:45:00,63.2,62.3,30.19,WSW,249,0.0,5.0,97,0.00,,,0.00,0,Wunderground v.1.15,2013-08-19 09:45:00,
2013-08-19 05:50:00,63.2,62.3,30.19,WSW,249,0.0,5.0,97,0.00,,,0.00,0,Wunderground v.1.15,2013-08-19 09:50:00,
2013-08-19 06:00:00,63.2,62.3,30.20,WSW,249,0.0,5.0,97,0.00,,,0.00,0,Wunderground v.1.15,2013-08-19 10:00:00,
2013-08-19 06:05:00,63.3,62.4,30.20,WSW,249,0.0,5.0,97,0.00,,,0.00,0,Wunderground v.1.15,2013-08-19 10:05:00,
2013-08-19 06:10:00,63.2,62.3,30.20,WSW,249,0.0,5.0,97,0.00,,,0.00,0,Wunderground v.1.15,2013-08-19 10:10:00,
2013-08-19 06:15:00,63.2,62.3,30.19,WSW,249,1.0,5.0,97,0.00,,,0.00,0,Wunderground v.1.15,2013-08-19 10:15:00,
2013-08-19 06:20:00,63.2,62.3,30.19,WSW,249,1.0,1.0,97,0.00,,,0.00,0,Wunderground v.1.15,2013-08-19 10:20:00,
2013-08-19 06:30:00,63.0,62.1,30.19,SW,233,2.0,2.0,97,0.00,,,0.00,0,Wunderground v.1.15,2013-08-19 10:30:00,
2013-08-19 06:35:00,63.0,62.1,30.19,SW,233,1.0,5.0,97,0.00,,,0.00,0,Wunderground v.1.15,2013-08-19 10:35:00,
2013-08-19 06:40:00,63.0,62.1,30.19,SW,233,0.0,5.0,97,0.00,,,0.00,0,Wunderground v.1.15,2013-08-19 10:40:00,
2013-08-19 06:45:00,63.0,62.1,30.20,SW,233,0.0,5.0,97,0.00,,,0.00,0,Wunderground v.1.15,2013-08-19 10:45:00,
2013-08-19 06:50:00,63.0,62.1,30.20,SW,233,0.0,5.0,97,0.00,,,0.00,0,Wunderground v.1.15,2013-08-19 10:50:00,
2013-08-19 06:55:00,63.1,62.2,30.21,SW,233,0.0,5.0,97,0.00,,,0.00,5,Wunderground v.1.15,2013-08-19 10:55:00,
2013-08-19 07:05:00,63.3,62.7,30.20,SW,233,0.0,5.0,98,0.00,,,0.01,14,Wunderground v.1.15,2013-08-19 11:05:00,
2013-08-19 07:10:00,63.3,62.7,30.20,SW,233,0.0,5.0,98,0.00,,,0.01,18,Wunderground v.1.15,2013-08-19 11:10:00,
2013-08-19 07:15:00,63.3,62.7,30.20,SW,233,0.0,5.0,98,0.00,,,0.01,14,Wunderground v.1.15,2013-08-19 11:15:00,
2013-08-19 07:20:00,63.4,62.8,30.20,SW,233,1.0,1.0,98,0.00,,,0.01,21,Wunderground v.1.15,2013-08-19 11:20:00,
2013-08-19 07:25:00,63.5,62.9,30.20,SW,233,0.0,5.0,98,0.00,,,0.01,26,Wunderground v.1.15,2013-08-19 11:25:00,
2013-08-19 07:35:00,63.6,62.7,30.20,SW,233,0.0,5.0,97,0.00,,,0.01,26,Wunderground v.1.15,2013-08-19 11:35:00,
2013-08-19 07:40:00,63.7,62.8,30.20,SW,233,0.0,5.0,97,0.00,,,0.01,35,Wunderground v.1.15,2013-08-19 11:40:00,
2013-08-19 07:45:00,63.8,62.9,30.20,SW,233,0.0,5.0,97,0.00,,,0.02,35,Wunderground v.1.15,2013-08-19 11:45:00,
2013-08-19 07:50:00,63.7,62.8,30.20,SW,233,0.0,5.0,97,0.00,,,0.02,35,Wunderground v.1.15,2013-08-19 11:50:00,
2013-08-19 07:55:00,63.8,62.9,30.20,SW,233,0.0,5.0,97,0.00,,,0.02,28,Wunderground v.1.15,2013-08-19 11:55:00,
2013-08-19 08:00:00,63.7,62.8,30.20,SW,233,1.0,5.0,97,0.00,,,0.02,32,Wunderground v.1.15,2013-08-19 12:00:00,
2013-08-19 08:10:00,63.6,62.7,30.19,SW,232,1.0,5.0,97,0.00,,,0.02,37,Wunderground v.1.15,2013-08-19 12:10:00,
2013-08-19 08:15:00,63.6,62.7,30.19,SW,232,1.0,5.0,97,0.00,,,0.02,49,Wunderground v.1.15,2013-08-19 12:15:00,
2013-08-19 08:20:00,63.6,62.7,30.20,SW,236,1.0,5.0,97,0.00,,,0.02,49,Wunderground v.1.15,2013-08-19 12:20:00,
2013-08-19 08:25:00,63.7,62.8,30.18,SW,227,2.0,5.0,97,0.00,,,0.02,72,Wunderground v.1.15,2013-08-19 12:25:00,
2013-08-19 08:30:00,63.7,62.8,30.18,SW,215,3.0,3.0,97,0.00,,,0.02,76,Wunderground v.1.15,2013-08-19 12:30:00,
2013-08-19 08:40:00,63.8,62.9,30.20,SW,215,1.0,1.0,97,0.00,,,0.03,76,Wunderground v.1.15,2013-08-19 12:40:00,
2013-08-19 08:45:00,63.9,63.3,30.19,SW,216,1.0,2.0,98,0.00,,,0.03,95,Wunderground v.1.15,2013-08-19 12:45:00,
2013-08-19 08:50:00,64.0,63.4,30.19,SW,216,1.0,5.0,98,0.00,,,0.03,105,Wunderground v.1.15,2013-08-19 12:50:00,
2013-08-19 08:55:00,64.1,63.5,30.19,SW,216,1.0,5.0,98,0.00,,,0.03,121,Wunderground v.1.15,2013-08-19 12:55:00,
2013-08-19 09:00:00,64.2,63.6,30.19,SW,216,1.0,5.0,98,0.00,,,0.03,144,Wunderground v.1.15,2013-08-19 13:00:00,
2013-08-19 09:05:00,64.4,63.5,30.19,SW,235,1.0,5.0,97,0.00,,,0.03,146,Wunderground v.1.15,2013-08-19 13:05:00,
2013-08-19 09:15:00,64.5,63.6,30.18,WSW,238,2.0,5.0,97,0.00,,,0.03,160,Wunderground v.1.15,2013-08-19 13:15:00,
2013-08-19 09:20:00,64.7,64.1,30.18,WSW,239,1.0,1.0,98,0.00,,,0.03,144,Wunderground v.1.15,2013-08-19 13:20:00,
2013-08-19 09:25:00,65.0,64.1,30.18,WSW,245,1.0,3.0,97,0.00,,,0.03,153,Wunderground v.1.15,2013-08-19 13:25:00,
2013-08-19 09:30:00,64.9,64.0,30.19,West,270,2.0,2.0,97,0.00,,,0.03,144,Wunderground v.1.15,2013-08-19 13:30:00,
2013-08-19 09:35:00,65.0,64.1,30.18,West,261,3.0,3.0,97,0.00,,,0.03,153,Wunderground v.1.15,2013-08-19 13:35:00,
2013-08-19 09:45:00,65.2,64.3,30.17,SW,216,2.0,5.0,97,0.00,,,0.03,151,Wunderground v.1.15,2013-08-19 13:45:00,
2013-08-19 09:50:00,65.2,64.3,30.18,WNW,288,2.0,5.0,97,0.00,,,0.03,151,Wunderground v.1.15,2013-08-19 13:50:00,
2013-08-19 09:55:00,65.3,64.4,30.18,West,260,2.0,5.0,97,0.00,,,0.03,185,Wunderground v.1.15,2013-08-19 13:55:00,
2013-08-19 10:00:00,65.4,64.2,30.17,WSW,252,2.0,5.0,96,0.00,,,0.03,167,Wunderground v.1.15,2013-08-19 14:00:00,
2013-08-19 10:05:00,65.6,64.4,30.18,WSW,254,2.0,5.0,96,0.00,,,0.03,169,Wunderground v.1.15,2013-08-19 14:05:00,
2013-08-19 10:10:00,65.7,64.5,30.17,SW,226,2.0,5.0,96,0.00,,,0.03,248,Wunderground v.1.15,2013-08-19 14:10:00,
2013-08-19 10:20:00,66.2,65.0,30.17,NW,307,2.0,5.0,96,0.00,,,0.03,229,Wunderground v.1.15,2013-08-19 14:20:00,
2013-08-19 10:25:00,66.3,65.1,30.17,WSW,240,2.0,5.0,96,0.00,,,0.03,183,Wunderground v.1.15,2013-08-19 14:25:00,
2013-08-19 10:30:00,66.4,64.6,30.18,WNW,302,2.0,5.0,94,0.00,,,0.03,216,Wunderground v.1.15,2013-08-19 14:30:00,
2013-08-19 10:35:00,66.4,64.6,30.18,WNW,298,3.0,5.0,94,0.00,,,0.03,197,Wunderground v.1.15,2013-08-19 14:35:00,
2013-08-19 10:40:00,66.4,64.6,30.18,West,262,3.0,3.0,94,0.00,,,0.03,220,Wunderground v.1.15,2013-08-19 14:40:00,
2013-08-19 10:50:00,66.7,64.9,30.18,West,271,3.0,5.0,94,0.00,,,0.03,239,Wunderground v.1.15,2013-08-19 14:50:00,
2013-08-19 10:55:00,67.0,65.2,30.18,West,264,2.0,5.0,94,0.00,,,0.03,216,Wunderground v.1.15,2013-08-19 14:55:00,
2013-08-19 11:00:00,67.0,64.9,30.17,WNW,288,3.0,3.0,93,0.00,,,0.03,283,Wunderground v.1.15,2013-08-19 15:00:00,
2013-08-19 11:05:00,67.3,65.2,30.17,West,278,3.0,5.0,93,0.00,,,0.03,346,Wunderground v.1.15,2013-08-19 15:05:00,
2013-08-19 11:10:00,67.6,65.5,30.18,West,263,2.0,5.0,93,0.00,,,0.03,243,Wunderground v.1.15,2013-08-19 15:10:00,
2013-08-19 11:15:00,68.0,65.6,30.19,West,267,3.0,5.0,92,0.00,,,0.03,225,Wunderground v.1.15,2013-08-19 15:15:00,
2013-08-19 11:25:00,68.1,65.7,30.18,WSW,256,3.0,7.0,92,0.00,,,0.03,181,Wunderground v.1.15,2013-08-19 15:25:00,
2013-08-19 11:30:00,68.3,65.9,30.19,West,272,2.0,5.0,92,0.00,,,0.03,132,Wunderground v.1.15,2013-08-19 15:30:00,
2013-08-19 11:35:00,68.5,65.8,30.18,SW,225,2.0,5.0,91,0.00,,,0.03,192,Wunderground v.1.15,2013-08-19 15:35:00,
2013-08-19 11:40:00,68.5,65.8,30.19,West,267,2.0,6.0,91,0.00,,,0.03,236,Wunderground v.1.15,2013-08-19 15:40:00,
2013-08-19 11:45:00,68.6,65.9,30.19,NW,308,3.0,6.0,91,0.00,,,0.03,188,Wunderground v.1.15,2013-08-19 15:45:00,
2013-08-19 11:55:00,68.5,65.8,30.19,West,271,4.0,6.0,91,0.00,,,0.03,185,Wunderground v.1.15,2013-08-19 15:55:00,
2013-08-19 12:00:00,68.6,65.9,30.19,WSW,246,3.0,5.0,91,0.00,,,0.03,176,Wunderground v.1.15,2013-08-19 16:00:00,
2013-08-19 12:05:00,68.7,66.0,30.18,SW,234,3.0,5.0,91,0.00,,,0.03,211,Wunderground v.1.15,2013-08-19 16:05:00,
2013-08-19 12:10:00,69.0,65.9,30.18,WSW,257,2.0,5.0,90,0.00,,,0.03,229,Wunderground v.1.15,2013-08-19 16:10:00,
2013-08-19 12:20:00,69.3,66.6,30.18,WNW,290,2.0,2.0,91,0.00,,,0.03,255,Wunderground v.1.15,2013-08-19 16:20:00,
2013-08-19 12:30:00,69.5,66.1,30.18,SW,220,3.0,3.0,89,0.00,,,0.03,343,Wunderground v.1.15,2013-08-19 16:30:00,
2013-08-19 12:35:00,69.5,66.1,30.18,West,267,4.0,6.0,89,0.00,,,0.03,339,Wunderground v.1.15,2013-08-19 16:35:00,
2013-08-19 12:40:00,69.7,66.6,30.19,WNW,293,4.0,8.0,90,0.00,,,0.03,394,Wunderground v.1.15,2013-08-19 16:40:00,
2013-08-19 12:45:00,69.8,66.1,30.19,West,271,5.0,8.0,88,0.00,,,0.03,221,Wunderground v.1.15,2013-08-19 16:45:00,
2013-08-19 12:50:00,69.7,66.3,30.18,West,260,4.0,5.0,89,0.00,,,0.03,229,Wunderground v.1.15,2013-08-19 16:50:00,
2013-08-19 12:55:00,69.8,66.4,30.17,SSW,194,3.0,5.0,89,0.00,,,0.03,223,Wunderground v.1.15,2013-08-19 16:55:00,
2013-08-19 13:05:00,69.9,66.5,30.17,SSW,207,2.0,5.0,89,0.00,,,0.03,279,Wunderground v.1.15,2013-08-19 17:05:00,
2013-08-19 13:10:00,70.0,66.3,30.18,West,278,3.0,5.0,88,0.00,,,0.03,248,Wunderground v.1.15,2013-08-19 17:10:00,
2013-08-19 13:15:00,70.1,66.7,30.18,WSW,257,3.0,5.0,89,0.00,,,0.03,332,Wunderground v.1.15,2013-08-19 17:15:00,
2013-08-19 13:20:00,70.4,67.0,30.18,WNW,294,3.0,3.0,89,0.00,,,0.03,385,Wunderground v.1.15,2013-08-19 17:20:00,
2013-08-19 13:25:00,70.7,66.6,30.17,West,261,2.0,5.0,87,0.00,,,0.03,237,Wunderground v.1.15,2013-08-19 17:25:00,
2013-08-19 13:30:00,70.6,66.5,30.17,SSW,202,3.0,5.0,87,0.00,,,0.03,234,Wunderground v.1.15,2013-08-19 17:30:00,
2013-08-19 13:35:00,70.5,66.8,30.17,WSW,253,3.0,5.0,88,0.00,,,0.03,271,Wunderground v.1.15,2013-08-19 17:35:00,
2013-08-19 13:40:00,70.6,66.9,30.17,SW,234,3.0,5.0,88,0.00,,,0.03,366,Wunderground v.1.15,2013-08-19 17:40:00,
2013-08-19 13:45:00,70.6,66.9,30.17,WSW,240,3.0,5.0,88,0.00,,,0.03,452,Wunderground v.1.15,2013-08-19 17:45:00,
2013-08-19 13:50:00,71.0,67.3,30.17,WSW,248,3.0,5.0,88,0.00,,,0.03,550,Wunderground v.1.15,2013-08-19 17:50:00,
2013-08-19 13:55:00,71.4,67.0,30.17,SW,219,3.0,5.0,86,0.00,,,0.03,431,Wunderground v.1.15,2013-08-19 17:55:00,
2013-08-19 14:00:00,71.5,67.1,30.17,West,268,3.0,5.0,86,0.00,,,0.03,422,Wunderground v.1.15,2013-08-19 18:00:00,
2013-08-19 14:10:00,71.9,67.5,30.16,WSW,240,3.0,3.0,86,0.00,,,0.03,394,Wunderground v.1.15,2013-08-19 18:10:00,
2013-08-19 14:15:00,72.0,67.2,30.16,WSW,248,3.0,5.0,85,0.00,,,0.03,338,Wunderground v.1.15,2013-08-19 18:15:00,
2013-08-19 14:20:00,72.1,67.3,30.16,West,280,3.0,5.0,85,0.00,,,0.03,406,Wunderground v.1.15,2013-08-19 18:20:00,
2013-08-19 14:25:00,71.8,67.0,30.16,WSW,248,3.0,5.0,85,0.00,,,0.03,413,Wunderground v.1.15,2013-08-19 18:25:00,
2013-08-19 14:30:00,71.9,67.5,30.16,SW,216,3.0,3.0,86,0.00,,,0.03,496,Wunderground v.1.15,2013-08-19 18:30:00,
2013-08-19 14:40:00,72.4,67.6,30.16,SW,233,3.0,3.0,85,0.00,,,0.03,469,Wunderground v.1.15,2013-08-19 18:40:00,
2013-08-19 14:45:00,72.6,67.5,30.15,South,178,2.0,5.0,84,0.00,,,0.03,425,Wunderground v.1.15,2013-08-19 18:45:00,
2013-08-19 14:50:00,72.8,67.7,30.15,WSW,243,2.0,2.0,84,0.00,,,0.03,469,Wunderground v.1.15,2013-08-19 18:50:00,
2013-08-19 14:55:00,73.1,68.0,30.15,West,265,2.0,6.0,84,0.00,,,0.03,450,Wunderground v.1.15,2013-08-19 18:55:00,
2013-08-19 15:00:00,73.1,68.0,30.15,SSW,195,3.0,3.0,84,0.00,,,0.03,338,Wunderground v.1.15,2013-08-19 19:00:00,
2013-08-19 15:05:00,73.2,68.1,30.15,SSW,195,2.0,5.0,84,0.00,,,0.03,302,Wunderground v.1.15,2013-08-19 19:05:00,
2013-08-19 15:10:00,73.1,68.0,30.15,WNW,295,3.0,5.0,84,0.00,,,0.03,260,Wunderground v.1.15,2013-08-19 19:10:00,
2013-08-19 15:15:00,73.1,68.3,30.15,WSW,256,4.0,5.0,85,0.00,,,0.03,227,Wunderground v.1.15,2013-08-19 19:15:00,
2013-08-19 15:20:00,73.1,68.3,30.15,NW,322,3.0,5.0,85,0.00,,,0.03,206,Wunderground v.1.15,2013-08-19 19:20:00,
2013-08-19 15:25:00,73.0,68.2,30.14,WNW,296,3.0,5.0,85,0.00,,,0.03,213,Wunderground v.1.15,2013-08-19 19:25:00,
2013-08-19 15:30:00,73.2,68.4,30.14,SW,215,3.0,3.0,85,0.00,,,0.03,262,Wunderground v.1.15,2013-08-19 19:30:00,
2013-08-19 15:35:00,73.2,68.4,30.14,West,259,2.0,5.0,85,0.00,,,0.03,244,Wunderground v.1.15,2013-08-19 19:35:00,
2013-08-19 15:45:00,73.0,67.9,30.14,West,271,3.0,5.0,84,0.00,,,0.03,288,Wunderground v.1.15,2013-08-19 19:45:00,
2013-08-19 15:50:00,73.0,68.2,30.13,SW,221,4.0,4.0,85,0.00,,,0.03,350,Wunderground v.1.15,2013-08-19 19:50:00,
2013-08-19 15:55:00,73.1,68.3,30.14,WNW,294,3.0,6.0,85,0.00,,,0.03,294,Wunderground v.1.15,2013-08-19 19:55:00,
2013-08-19 16:00:00,73.4,68.6,30.13,WSW,246,3.0,3.0,85,0.00,,,0.03,318,Wunderground v.1.15,2013-08-19 20:00:00,
2013-08-19 16:05:00,73.7,68.9,30.13,West,263,3.0,5.0,85,0.00,,,0.03,327,Wunderground v.1.15,2013-08-19 20:05:00,
2013-08-19 16:10:00,74.1,69.0,30.13,South,186,2.0,5.0,84,0.00,,,0.03,334,Wunderground v.1.15,2013-08-19 20:10:00,
2013-08-19 16:20:00,74.3,68.8,30.12,West,262,2.0,2.0,83,0.00,,,0.03,336,Wunderground v.1.15,2013-08-19 20:20:00,
2013-08-19 16:25:00,74.3,68.8,30.12,SSW,202,2.0,5.0,83,0.00,,,0.03,327,Wunderground v.1.15,2013-08-19 20:25:00,
2013-08-19 16:30:00,74.4,68.9,30.12,SW,216,2.0,2.0,83,0.00,,,0.03,330,Wunderground v.1.15,2013-08-19 20:30:00,
2013-08-19 16:40:00,74.5,69.0,30.12,SSW,204,2.0,2.0,83,0.00,,,0.03,338,Wunderground v.1.15,2013-08-19 20:40:00,
2013-08-19 16:45:00,74.6,69.1,30.12,SW,236,2.0,5.0,83,0.00,,,0.03,366,Wunderground v.1.15,2013-08-19 20:45:00,
2013-08-19 16:55:00,75.0,69.1,30.12,SW,221,2.0,3.0,82,0.00,,,0.03,209,Wunderground v.1.15,2013-08-19 20:55:00,
2013-08-19 17:00:00,74.9,69.0,30.12,SW,223,2.0,2.0,82,0.00,,,0.03,214,Wunderground v.1.15,2013-08-19 21:00:00,
2013-08-19 17:05:00,75.0,69.1,30.12,South,189,1.0,4.0,82,0.00,,,0.03,186,Wunderground v.1.15,2013-08-19 21:05:00,
2013-08-19 17:15:00,74.8,69.3,30.12,West,269,2.0,5.0,83,0.00,,,0.03,176,Wunderground v.1.15,2013-08-19 21:15:00,
2013-08-19 17:20:00,74.9,69.4,30.12,SSW,206,2.0,5.0,83,0.00,,,0.03,192,Wunderground v.1.15,2013-08-19 21:20:00,
2013-08-19 17:30:00,74.9,69.4,30.11,SSW,200,2.0,5.0,83,0.00,,,0.03,188,Wunderground v.1.15,2013-08-19 21:30:00,
2013-08-19 17:35:00,74.9,69.4,30.12,SW,215,1.0,5.0,83,0.00,,,0.03,144,Wunderground v.1.15,2013-08-19 21:35:00,
2013-08-19 17:40:00,75.0,69.5,30.12,SSE,167,2.0,5.0,83,0.00,,,0.03,123,Wunderground v.1.15,2013-08-19 21:40:00,
2013-08-19 17:45:00,74.9,69.4,30.12,South,180,3.0,5.0,83,0.00,,,0.03,148,Wunderground v.1.15,2013-08-19 21:45:00,
2013-08-19 17:50:00,74.6,69.4,30.12,SW,231,3.0,5.0,84,0.00,,,0.03,155,Wunderground v.1.15,2013-08-19 21:50:00,
2013-08-19 18:00:00,74.6,69.4,30.11,South,187,1.0,1.0,84,0.00,,,0.03,165,Wunderground v.1.15,2013-08-19 22:00:00,
2013-08-19 18:05:00,74.6,69.8,30.11,South,179,2.0,2.0,85,0.00,,,0.03,181,Wunderground v.1.15,2013-08-19 22:05:00,
2013-08-19 18:10:00,74.4,69.6,30.11,SW,219,2.0,5.0,85,0.00,,,0.03,149,Wunderground v.1.15,2013-08-19 22:10:00,
2013-08-19 18:15:00,74.3,69.5,30.11,SE,146,3.0,5.0,85,0.00,,,0.03,141,Wunderground v.1.15,2013-08-19 22:15:00,
2013-08-19 18:20:00,74.3,69.5,30.11,SW,227,2.0,2.0,85,0.00,,,0.03,113,Wunderground v.1.15,2013-08-19 22:20:00,
2013-08-19 18:25:00,74.4,69.9,30.11,SSW,200,1.0,5.0,86,0.00,,,0.03,53,Wunderground v.1.15,2013-08-19 22:25:00,
2013-08-19 18:35:00,74.1,69.3,30.11,SW,215,2.0,5.0,85,0.00,,,0.03,56,Wunderground v.1.15,2013-08-19 22:35:00,
2013-08-19 18:40:00,73.8,69.3,30.11,SSW,210,2.0,5.0,86,0.00,,,0.03,54,Wunderground v.1.15,2013-08-19 22:40:00,
2013-08-19 18:45:00,73.6,69.2,30.11,SSW,193,3.0,5.0,86,0.00,,,0.03,49,Wunderground v.1.15,2013-08-19 22:45:00,
2013-08-19 18:50:00,73.5,69.1,30.12,SSW,194,2.0,5.0,86,0.00,,,0.03,40,Wunderground v.1.15,2013-08-19 22:50:00,
2013-08-19 18:55:00,73.5,69.1,30.12,SSW,213,1.0,5.0,86,0.00,,,0.03,44,Wunderground v.1.15,2013-08-19 22:55:00,
2013-08-19 19:05:00,73.3,69.2,30.12,SSE,159,2.0,5.0,87,0.00,,,0.03,35,Wunderground v.1.15,2013-08-19 23:05:00,
2013-08-19 19:10:00,73.3,69.2,30.12,SSW,207,1.0,5.0,87,0.00,,,0.03,44,Wunderground v.1.15,2013-08-19 23:10:00,
2013-08-19 19:15:00,73.2,69.1,30.12,SSW,204,1.0,5.0,87,0.00,,,0.03,40,Wunderground v.1.15,2013-08-19 23:15:00,
2013-08-19 19:20:00,73.2,69.1,30.12,SW,226,2.0,5.0,87,0.00,,,0.03,40,Wunderground v.1.15,2013-08-19 23:20:00,
2013-08-19 19:25:00,73.0,68.9,30.12,SSW,205,3.0,5.0,87,0.00,,,0.03,33,Wunderground v.1.15,2013-08-19 23:25:00,
2013-08-19 19:30:00,72.8,68.7,30.12,WSW,252,4.0,4.0,87,0.00,,,0.03,23,Wunderground v.1.15,2013-08-19 23:30:00,
2013-08-19 19:40:00,72.8,69.0,30.12,WSW,253,1.0,1.0,88,0.00,,,0.03,19,Wunderground v.1.15,2013-08-19 23:40:00,
2013-08-19 19:45:00,72.7,68.9,30.11,SSW,193,2.0,2.0,88,0.00,,,0.03,18,Wunderground v.1.15,2013-08-19 23:45:00,
2013-08-19 19:50:00,72.7,68.9,30.12,SSW,193,1.0,1.0,88,0.00,,,0.03,12,Wunderground v.1.15,2013-08-19 23:50:00,
2013-08-19 19:55:00,72.7,68.9,30.12,SSW,193,0.0,5.0,88,0.00,,,0.03,9,Wunderground v.1.15,2013-08-19 23:55:00,
2013-08-19 20:00:00,72.7,68.9,30.12,SSW,193,0.0,5.0,88,0.00,,,0.03,7,Wunderground v.1.15,2013-08-20 00:00:00,
2013-08-19 20:10:00,72.6,69.2,30.12,SSW,193,1.0,1.0,89,0.00,,,0.03,0,Wunderground v.1.15,2013-08-20 00:10:00,
2013-08-19 20:15:00,72.5,68.7,30.12,SSW,193,0.0,5.0,88,0.00,,,0.03,0,Wunderground v.1.15,2013-08-20 00:15:00,
2013-08-19 20:20:00,72.5,69.1,30.12,SSW,193,0.0,5.0,89,0.00,,,0.03,0,Wunderground v.1.15,2013-08-20 00:20:00,
2013-08-19 20:25:00,72.5,69.1,30.12,SSW,193,0.0,5.0,89,0.00,,,0.03,0,Wunderground v.1.15,2013-08-20 00:25:00,
2013-08-19 20:30:00,72.5,69.1,30.12,SSW,193,1.0,1.0,89,0.00,,,0.03,0,Wunderground v.1.15,2013-08-20 00:30:00,
2013-08-19 20:35:00,72.5,69.1,30.12,SSW,194,1.0,5.0,89,0.00,,,0.03,0,Wunderground v.1.15,2013-08-20 00:35:00,
2013-08-19 20:45:00,72.6,68.8,30.13,WSW,255,1.0,5.0,88,0.00,,,0.03,0,Wunderground v.1.15,2013-08-20 00:45:00,
2013-08-19 20:50:00,72.6,68.8,30.13,WSW,246,1.0,5.0,88,0.00,,,0.03,0,Wunderground v.1.15,2013-08-20 00:50:00,
2013-08-19 20:55:00,72.6,69.2,30.13,West,259,2.0,5.0,89,0.00,,,0.03,0,Wunderground v.1.15,2013-08-20 00:55:00,
2013-08-19 21:00:00,72.5,68.7,30.13,West,259,1.0,1.0,88,0.00,,,0.03,0,Wunderground v.1.15,2013-08-20 01:00:00,
2013-08-19 21:05:00,72.5,69.1,30.13,WSW,254,0.0,5.0,89,0.00,,,0.03,0,Wunderground v.1.15,2013-08-20 01:05:00,
2013-08-19 21:15:00,72.4,69.0,30.14,WSW,254,0.0,5.0,89,0.00,,,0.03,0,Wunderground v.1.15,2013-08-20 01:15:00,
2013-08-19 21:20:00,72.4,69.0,30.14,WSW,253,1.0,5.0,89,0.00,,,0.03,0,Wunderground v.1.15,2013-08-20 01:20:00,
2013-08-19 21:25:00,72.3,68.9,30.14,WSW,253,1.0,5.0,89,0.00,,,0.03,0,Wunderground v.1.15,2013-08-20 01:25:00,
2013-08-19 21:30:00,72.2,68.8,30.14,WSW,253,0.0,5.0,89,0.00,,,0.03,0,Wunderground v.1.15,2013-08-20 01:30:00,
2013-08-19 21:35:00,72.2,68.8,30.14,WSW,253,0.0,5.0,89,0.00,,,0.03,0,Wunderground v.1.15,2013-08-20 01:35:00,
2013-08-19 21:40:00,72.2,69.1,30.14,WSW,253,0.0,5.0,90,0.00,,,0.03,0,Wunderground v.1.15,2013-08-20 01:40:00,
2013-08-19 21:50:00,72.3,68.9,30.15,WSW,253,0.0,5.0,89,0.00,,,0.03,0,Wunderground v.1.15,2013-08-20 01:50:00,
2013-08-19 21:55:00,72.2,68.8,30.15,WSW,253,0.0,5.0,89,0.00,,,0.03,0,Wunderground v.1.15,2013-08-20 01:55:00,
2013-08-19 22:00:00,72.2,69.1,30.15,WSW,253,0.0,5.0,90,0.00,,,0.03,0,Wunderground v.1.15,2013-08-20 02:00:00,
2013-08-19 22:05:00,72.2,69.1,30.15,WSW,253,0.0,5.0,90,0.00,,,0.03,0,Wunderground v.1.15,2013-08-20 02:05:00,
2013-08-19 22:10:00,72.1,69.0,30.15,WSW,253,0.0,5.0,90,0.00,,,0.03,0,Wunderground v.1.15,2013-08-20 02:10:00,
2013-08-19 22:20:00,72.0,68.9,30.15,WSW,253,0.0,5.0,90,0.00,,,0.03,0,Wunderground v.1.15,2013-08-20 02:20:00,
2013-08-19 22:25:00,72.0,68.9,30.15,WSW,253,0.0,5.0,90,0.00,,,0.03,0,Wunderground v.1.15,2013-08-20 02:25:00,
2013-08-19 22:30:00,71.9,68.8,30.15,WSW,253,0.0,5.0,90,0.00,,,0.03,0,Wunderground v.1.15,2013-08-20 02:30:00,
2013-08-19 22:35:00,71.8,69.0,30.15,WSW,253,0.0,5.0,91,0.00,,,0.03,0,Wunderground v.1.15,2013-08-20 02:35:00,
2013-08-19 22:40:00,71.7,68.9,30.15,WSW,253,0.0,5.0,91,0.00,,,0.03,0,Wunderground v.1.15,2013-08-20 02:40:00,
2013-08-19 22:45:00,71.6,68.8,30.15,WSW,253,0.0,5.0,91,0.00,,,0.03,0,Wunderground v.1.15,2013-08-20 02:45:00,
2013-08-19 22:55:00,71.5,68.7,30.15,WSW,253,0.0,5.0,91,0.00,,,0.03,0,Wunderground v.1.15,2013-08-20 02:55:00,
2013-08-19 23:00:00,71.4,69.0,30.15,WSW,253,0.0,5.0,92,0.00,,,0.03,0,Wunderground v.1.15,2013-08-20 03:00:00,
2013-08-19 23:05:00,71.3,68.9,30.15,WSW,253,0.0,5.0,92,0.00,,,0.03,0,Wunderground v.1.15,2013-08-20 03:05:00,
2013-08-19 23:10:00,71.3,68.9,30.15,WSW,252,0.0,5.0,92,0.00,,,0.03,0,Wunderground v.1.15,2013-08-20 03:10:00,
2013-08-19 23:15:00,71.2,68.8,30.15,WSW,253,0.0,5.0,92,0.00,,,0.03,0,Wunderground v.1.15,2013-08-20 03:15:00,
2013-08-19 23:25:00,71.1,68.7,30.15,WSW,253,0.0,5.0,92,0.00,,,0.03,0,Wunderground v.1.15,2013-08-20 03:25:00,
2013-08-19 23:30:00,71.0,68.6,30.15,WSW,253,0.0,5.0,92,0.00,,,0.03,0,Wunderground v.1.15,2013-08-20 03:30:00,
2013-08-19 23:35:00,71.0,68.6,30.15,WSW,253,0.0,5.0,92,0.00,,,0.03,0,Wunderground v.1.15,2013-08-20 03:35:00,
2013-08-19 23:40:00,70.9,68.5,30.16,WSW,253,0.0,5.0,92,0.00,,,0.03,0,Wunderground v.1.15,2013-08-20 03:40:00,
2013-08-19 23:45:00,70.8,68.7,30.16,WSW,252,0.0,5.0,93,0.00,,,0.03,0,Wunderground v.1.15,2013-08-20 03:45:00,
2013-08-19 23:50:00,70.7,68.6,30.16,WSW,252,0.0,5.0,93,0.00,,,0.03,0,Wunderground v.1.15,2013-08-20 03:50:00,